createdAt,value
2022-12-19T00:01:49.329Z,22.67
2022-12-19T00:05:13.503Z,22.43
2022-12-19T00:08:35.535Z,20.70
2022-12-19T00:11:57.456Z,22.67
2022-12-19T00:15:19.393Z,22.10
2022-12-19T00:18:44.945Z,22.73
2022-12-19T00:22:11.394Z,23.63
2022-12-19T00:25:33.363Z,22.27
2022-12-19T00:28:59.839Z,22.83
2022-12-19T00:32:23.024Z,23.20
2022-12-19T00:35:44.932Z,21.30
2022-12-19T00:39:08.173Z,22.83
2022-12-19T00:42:41.470Z,21.17
2022-12-19T00:46:14.345Z,21.13
2022-12-19T00:49:47.444Z,22.10
2022-12-19T00:53:11.196Z,21.33
2022-12-19T00:56:37.899Z,20.43
2022-12-19T01:00:04.663Z,23.13
2022-12-19T01:03:26.519Z,23.10
2022-12-19T01:06:48.327Z,22.63
2022-12-19T01:10:10.520Z,23.07
2022-12-19T01:13:37.668Z,21.13
2022-12-19T01:17:03.960Z,22.80
2022-12-19T01:20:31.855Z,21.73
2022-12-19T01:24:02.740Z,22.60
2022-12-19T01:27:25.672Z,21.33
2022-12-19T01:30:48.053Z,21.07
2022-12-19T01:34:11.031Z,20.67
2022-12-19T01:37:32.929Z,21.17
2022-12-19T01:40:57.677Z,20.70
2022-12-19T01:44:26.003Z,21.23
2022-12-19T01:48:19.781Z,21.30
2022-12-19T01:52:06.223Z,20.60
2022-12-19T01:55:37.303Z,20.80
2022-12-19T01:59:07.908Z,20.67
2022-12-19T02:03:02.685Z,22.63
2022-12-19T02:06:27.072Z,22.20
2022-12-19T02:09:58.434Z,22.33
2022-12-19T02:13:30.555Z,20.50
2022-12-19T02:17:04.202Z,21.83
2022-12-19T02:21:19.017Z,21.87
2022-12-19T02:25:15.631Z,22.63
2022-12-19T02:29:28.525Z,21.47
2022-12-19T02:33:36.287Z,21.03
2022-12-19T02:37:10.728Z,20.43
2022-12-19T02:41:43.047Z,20.63
2022-12-19T02:45:20.799Z,21.60
2022-12-19T02:48:59.749Z,21.60
2022-12-19T02:52:21.586Z,21.77
2022-12-19T02:56:33.819Z,21.23
2022-12-19T03:00:15.558Z,21.53
2022-12-19T03:04:17.124Z,21.87
2022-12-19T03:08:14.970Z,20.70
2022-12-19T03:12:06.629Z,19.20
2022-12-19T03:15:42.801Z,23.90
2022-12-19T03:19:12.107Z,22.23
2022-12-19T03:22:37.209Z,22.17
2022-12-19T03:26:23.619Z,21.67
2022-12-19T03:29:52.442Z,22.37
2022-12-19T03:33:19.697Z,21.67
2022-12-19T03:36:48.725Z,21.63
2022-12-19T03:40:19.454Z,21.23
2022-12-19T03:43:50.473Z,21.17
2022-12-19T03:47:26.438Z,21.30
2022-12-19T03:51:29.569Z,22.53
2022-12-19T03:55:41.164Z,20.57
2022-12-19T03:59:29.833Z,23.77
2022-12-19T04:02:56.283Z,20.93
2022-12-19T04:06:18.637Z,21.40
2022-12-19T04:09:43.050Z,21.63
2022-12-19T04:13:22.207Z,22.57
2022-12-19T04:17:30.468Z,22.27
2022-12-19T04:21:05.530Z,22.37
2022-12-19T04:24:37.853Z,21.20
2022-12-19T04:28:25.529Z,23.57
2022-12-19T04:31:56.779Z,21.70
2022-12-19T04:35:23.001Z,21.87
2022-12-19T04:38:44.992Z,21.40
2022-12-19T04:42:06.917Z,21.00
2022-12-19T04:45:28.734Z,22.70
2022-12-19T04:48:55.151Z,22.73
2022-12-19T04:52:21.314Z,21.67
2022-12-19T04:55:47.228Z,21.07
2022-12-19T04:59:11.311Z,21.57
2022-12-19T05:02:33.441Z,22.47
2022-12-19T05:06:08.256Z,22.53
2022-12-19T05:09:30.134Z,21.53
2022-12-19T05:12:54.865Z,21.07
2022-12-19T05:16:35.221Z,22.17
2022-12-19T05:19:57.302Z,21.03
2022-12-19T05:23:24.616Z,21.70
2022-12-19T05:26:49.293Z,23.10
2022-12-19T05:30:11.957Z,22.03
2022-12-19T05:33:34.314Z,20.60
2022-12-19T05:36:56.338Z,21.30
2022-12-19T05:40:22.813Z,20.50
2022-12-19T05:43:56.205Z,20.60
2022-12-19T05:47:21.114Z,22.77
2022-12-19T05:50:49.342Z,21.47
2022-12-19T05:54:11.198Z,22.50
2022-12-19T05:57:35.073Z,21.27
2022-12-19T06:01:33.650Z,21.60
2022-12-19T06:04:55.547Z,22.63
2022-12-19T06:08:24.269Z,21.57
2022-12-19T06:11:47.129Z,22.03
2022-12-19T06:15:10.716Z,21.33
2022-12-19T06:18:59.226Z,21.40
2022-12-19T06:22:22.059Z,21.97
2022-12-19T06:25:49.016Z,22.30
2022-12-19T06:29:11.930Z,22.70
2022-12-19T06:32:41.109Z,20.97
2022-12-19T06:36:08.079Z,20.80
2022-12-19T06:39:30.275Z,20.13
2022-12-19T06:42:54.109Z,20.97
2022-12-19T06:46:40.021Z,21.87
2022-12-19T06:50:02.452Z,20.83
2022-12-19T06:53:25.040Z,22.33
2022-12-19T06:56:46.971Z,22.13
2022-12-19T07:00:10.349Z,19.60
2022-12-19T07:03:41.295Z,20.87
2022-12-19T07:07:10.264Z,21.17
2022-12-19T07:10:32.201Z,20.47
2022-12-19T07:13:54.125Z,18.97
2022-12-19T07:17:16.272Z,20.27
2022-12-19T07:20:45.032Z,20.37
2022-12-19T07:24:12.173Z,19.63
2022-12-19T07:27:41.879Z,20.00
2022-12-19T07:31:04.220Z,19.00
2022-12-19T07:34:30.049Z,19.33
2022-12-19T07:37:51.964Z,20.43
2022-12-19T07:41:13.837Z,19.67
2022-12-19T07:44:35.872Z,20.07
2022-12-19T07:48:01.943Z,20.57
2022-12-19T07:51:35.865Z,20.27
2022-12-19T07:54:57.758Z,19.73
2022-12-19T07:58:24.706Z,20.73
2022-12-19T08:01:46.701Z,20.93
2022-12-19T08:05:14.983Z,21.57
2022-12-19T08:08:37.727Z,20.83
2022-12-19T08:11:59.607Z,20.10
2022-12-19T08:15:21.506Z,20.50
2022-12-19T08:18:47.904Z,20.33
2022-12-19T08:22:10.712Z,18.67
2022-12-19T08:25:33.842Z,20.20
2022-12-19T08:28:58.302Z,19.03
2022-12-19T08:32:25.261Z,18.47
2022-12-19T08:36:06.771Z,18.37
2022-12-19T08:39:28.547Z,18.93
2022-12-19T08:42:50.947Z,18.30
2022-12-19T08:46:12.804Z,19.37
2022-12-19T08:49:34.673Z,19.33
2022-12-19T08:52:58.544Z,18.17
2022-12-19T08:56:22.509Z,18.50
2022-12-19T08:59:44.565Z,16.93
2022-12-19T09:03:09.363Z,15.97
2022-12-19T09:06:34.668Z,16.87
2022-12-19T09:09:57.701Z,16.47
2022-12-19T09:13:20.463Z,16.00
2022-12-19T09:16:42.567Z,16.83
2022-12-19T09:20:06.061Z,16.87
2022-12-19T09:23:34.835Z,16.07
2022-12-19T09:27:04.742Z,16.80
2022-12-19T09:30:28.980Z,15.23
2022-12-19T09:33:56.245Z,15.63
2022-12-19T09:37:18.848Z,16.83
2022-12-19T09:40:58.713Z,14.90
2022-12-19T09:44:53.098Z,14.87
2022-12-19T09:48:24.560Z,15.37
2022-12-19T09:52:14.897Z,14.03
2022-12-19T09:55:41.631Z,14.73
2022-12-19T10:00:02.728Z,14.60
2022-12-19T10:03:39.783Z,14.37
2022-12-19T10:07:21.260Z,12.87
2022-12-19T10:12:39.117Z,13.40
2022-12-19T10:15:28.694Z,12.57
2022-12-19T10:18:57.128Z,13.27
2022-12-19T10:23:03.153Z,13.13
2022-12-19T10:26:54.154Z,12.77
2022-12-19T10:30:22.201Z,12.57
2022-12-19T10:34:16.868Z,12.70
2022-12-19T10:38:04.532Z,12.93
2022-12-19T10:41:35.806Z,12.70
2022-12-19T10:45:20.930Z,13.23
2022-12-19T10:48:43.833Z,12.47
2022-12-19T10:52:09.502Z,12.93
2022-12-19T10:55:49.866Z,13.20
2022-12-19T10:59:24.002Z,11.23
2022-12-19T11:02:51.606Z,12.23
2022-12-19T11:06:35.227Z,11.53
2022-12-19T11:10:40.949Z,12.20
2022-12-19T11:19:22.313Z,11.93
2022-12-19T11:26:16.979Z,12.37
2022-12-19T11:29:32.310Z,11.63
2022-12-19T11:30:07.044Z,11.77
2022-12-19T11:30:37.769Z,10.77
2022-12-19T11:32:45.477Z,9.63
2022-12-19T11:36:30.739Z,10.07
2022-12-19T11:40:01.928Z,11.23
2022-12-19T11:43:45.077Z,10.33
2022-12-19T11:47:52.818Z,11.03
2022-12-19T11:51:43.009Z,10.27
2022-12-19T11:55:26.565Z,9.40
2022-12-19T11:58:59.079Z,10.10
2022-12-19T12:03:10.309Z,10.13
2022-12-19T12:06:47.720Z,10.30
2022-12-19T12:14:42.260Z,9.17
2022-12-19T12:26:13.253Z,9.60
2022-12-19T12:31:00.548Z,9.40
2022-12-19T12:31:48.511Z,9.67
2022-12-19T12:31:48.721Z,9.87
2022-12-19T12:39:42.227Z,10.70
2022-12-19T12:43:16.035Z,8.90
2022-12-19T12:46:49.834Z,9.17
2022-12-19T12:50:18.228Z,9.60
2022-12-19T12:53:45.553Z,9.87
2022-12-19T12:57:20.933Z,10.07
2022-12-19T13:01:10.260Z,9.80
2022-12-19T13:04:54.429Z,9.97
2022-12-19T13:08:35.724Z,9.07
2022-12-19T13:12:22.293Z,11.30
2022-12-19T13:15:45.075Z,9.60
2022-12-19T13:19:53.060Z,9.33
2022-12-19T13:23:42.935Z,9.23
2022-12-19T13:27:20.916Z,10.07
2022-12-19T13:31:16.090Z,9.87
2022-12-19T13:35:37.608Z,9.73
2022-12-19T13:39:56.271Z,9.80
2022-12-19T13:42:53.933Z,9.77
2022-12-19T13:46:44.451Z,10.40
2022-12-19T13:50:29.552Z,9.40
2022-12-19T13:53:59.591Z,9.33
2022-12-19T13:57:24.948Z,10.40
2022-12-19T14:00:53.535Z,10.03
2022-12-19T14:04:28.957Z,9.87
2022-12-19T14:07:52.207Z,9.63
2022-12-19T14:11:36.934Z,9.10
2022-12-19T14:15:14.729Z,9.60
2022-12-19T14:18:45.253Z,10.03
2022-12-19T14:22:26.642Z,9.37
2022-12-19T14:28:19.305Z,9.20
2022-12-19T14:30:30.772Z,9.40
2022-12-19T14:34:04.642Z,9.60
2022-12-19T14:39:20.655Z,9.87
2022-12-19T14:41:47.373Z,9.60
2022-12-19T14:54:09.327Z,10.57
2022-12-19T14:54:14.694Z,10.57
2022-12-19T14:54:22.927Z,10.50
2022-12-19T14:57:25.631Z,9.63
2022-12-19T15:01:23.542Z,11.13
2022-12-19T15:05:00.198Z,11.60
2022-12-19T15:09:34.256Z,12.27
2022-12-19T15:14:37.439Z,10.23
2022-12-19T15:16:36.773Z,11.20
2022-12-19T15:19:58.750Z,11.70
2022-12-19T15:23:22.582Z,11.13
2022-12-19T15:26:52.683Z,11.23
2022-12-19T15:30:21.318Z,10.70
2022-12-19T15:34:06.610Z,11.80
2022-12-19T15:37:25.221Z,11.63
2022-12-19T15:40:47.839Z,12.40
2022-12-19T15:44:40.890Z,12.13
2022-12-19T15:48:02.774Z,12.23
2022-12-19T15:51:24.665Z,12.63
2022-12-19T15:54:50.041Z,13.10
2022-12-19T15:58:14.726Z,14.10
2022-12-19T16:01:37.706Z,14.53
2022-12-19T16:05:03.950Z,14.43
2022-12-19T16:08:28.099Z,15.67
2022-12-19T16:11:52.626Z,14.23
2022-12-19T16:15:29.544Z,14.60
2022-12-19T16:18:51.482Z,15.70
2022-12-19T16:22:19.488Z,15.33
2022-12-19T16:25:50.318Z,14.87
2022-12-19T16:29:29.320Z,16.77
2022-12-19T16:32:51.433Z,16.17
2022-12-19T16:36:13.348Z,15.77
2022-12-19T16:39:35.332Z,16.00
2022-12-19T16:43:06.459Z,16.70
2022-12-19T16:46:30.854Z,18.17
2022-12-19T16:49:52.703Z,17.50
2022-12-19T16:53:20.029Z,18.17
2022-12-19T16:56:56.157Z,16.47
2022-12-19T17:00:23.250Z,16.50
2022-12-19T17:03:45.826Z,16.37
2022-12-19T17:07:10.979Z,17.43
2022-12-19T17:10:34.184Z,17.03
2022-12-19T17:14:13.100Z,16.30
2022-12-19T17:17:35.241Z,17.40
2022-12-19T17:20:57.410Z,16.77
2022-12-19T17:24:19.957Z,17.13
2022-12-19T17:27:41.889Z,17.97
2022-12-19T17:31:19.270Z,18.20
2022-12-19T17:34:43.739Z,17.23
2022-12-19T17:38:05.585Z,16.50
2022-12-19T17:41:30.373Z,17.03
2022-12-19T17:44:52.267Z,19.53
2022-12-19T17:48:32.286Z,19.47
2022-12-19T17:51:56.067Z,19.70
2022-12-19T17:55:30.520Z,19.17
2022-12-19T17:58:52.436Z,18.17
2022-12-19T18:02:24.726Z,17.93
2022-12-19T18:05:48.097Z,18.07
2022-12-19T18:09:21.881Z,18.70
2022-12-19T18:12:43.791Z,18.80
2022-12-19T18:16:13.739Z,18.07
2022-12-19T18:19:35.966Z,17.03
2022-12-19T18:23:00.378Z,18.67
2022-12-19T18:26:22.733Z,17.80
2022-12-19T18:29:45.067Z,16.67
2022-12-19T18:33:08.221Z,14.80
2022-12-19T18:36:40.018Z,16.43
2022-12-19T18:40:01.989Z,16.60
2022-12-19T18:43:26.952Z,16.57
2022-12-19T18:46:52.070Z,14.77
2022-12-19T18:50:17.728Z,15.30
2022-12-19T18:53:39.640Z,14.63
2022-12-19T18:57:03.495Z,15.43
2022-12-19T19:00:27.906Z,14.70
2022-12-19T19:03:59.259Z,14.23
2022-12-19T19:07:23.370Z,15.27
2022-12-19T19:10:47.886Z,14.03
2022-12-19T19:14:13.650Z,13.13
2022-12-19T19:17:35.594Z,11.87
2022-12-19T19:21:01.208Z,10.63
2022-12-19T19:24:23.795Z,11.67
2022-12-19T19:27:47.757Z,10.43
2022-12-19T19:31:16.036Z,10.30
2022-12-19T19:34:40.609Z,10.93
2022-12-19T19:38:07.480Z,10.17
2022-12-19T19:41:32.889Z,10.57
2022-12-19T19:44:54.887Z,10.40
2022-12-19T19:48:17.785Z,11.07
2022-12-19T19:51:39.673Z,11.33
2022-12-19T19:55:09.426Z,11.27
2022-12-19T19:58:32.099Z,18.50
2022-12-19T20:01:54.326Z,12.73
2022-12-19T20:05:17.298Z,22.43
2022-12-19T20:08:40.994Z,16.90
2022-12-19T20:12:03.449Z,13.60
2022-12-19T20:15:25.450Z,15.57
2022-12-19T20:18:51.023Z,13.70
2022-12-19T20:22:20.055Z,11.57
2022-12-19T20:25:43.142Z,12.87
2022-12-19T20:29:11.334Z,11.63
2022-12-19T20:32:40.178Z,11.80
2022-12-19T20:36:12.141Z,12.67
2022-12-19T20:39:34.384Z,11.63
2022-12-19T20:42:56.259Z,10.63
2022-12-19T20:46:21.204Z,8.70
2022-12-19T20:49:44.344Z,9.43
2022-12-19T20:53:07.183Z,9.17
2022-12-19T20:56:31.658Z,8.70
2022-12-19T20:59:53.543Z,9.83
2022-12-19T21:03:27.897Z,9.60
2022-12-19T21:06:50.641Z,9.10
2022-12-19T21:10:13.823Z,8.57
2022-12-19T21:13:37.848Z,8.70
2022-12-19T21:17:00.734Z,9.00
2022-12-19T21:20:22.665Z,8.90
2022-12-19T21:23:45.362Z,8.17
2022-12-19T21:27:07.301Z,8.10
2022-12-19T21:30:29.207Z,7.70
2022-12-19T21:33:55.897Z,8.70
2022-12-19T21:37:19.863Z,7.80
2022-12-19T21:40:41.754Z,8.00
2022-12-19T21:44:04.059Z,8.23
2022-12-19T21:47:25.931Z,6.97
2022-12-19T21:50:55.935Z,7.33
2022-12-19T21:54:17.747Z,7.00
2022-12-19T21:57:41.931Z,6.77
2022-12-19T22:01:16.080Z,8.10
2022-12-19T22:04:38.271Z,5.93
2022-12-19T22:08:01.267Z,8.73
2022-12-19T22:11:23.685Z,7.23
2022-12-19T22:14:45.836Z,7.27
2022-12-19T22:18:11.182Z,6.20
2022-12-19T22:21:34.821Z,6.40
2022-12-19T22:24:56.620Z,5.83
2022-12-19T22:28:18.512Z,5.67
2022-12-19T22:31:40.706Z,5.90
2022-12-19T22:35:02.854Z,5.73
2022-12-19T22:38:24.759Z,5.40
2022-12-19T22:41:46.845Z,4.80
2022-12-19T22:45:09.199Z,4.60
2022-12-19T22:48:31.085Z,5.07
2022-12-19T22:51:52.884Z,5.73
2022-12-19T22:55:16.957Z,5.87
2022-12-19T22:58:42.977Z,5.50
2022-12-19T23:02:05.063Z,4.93
2022-12-19T23:05:37.318Z,5.47
2022-12-19T23:09:00.058Z,5.70
2022-12-19T23:12:21.985Z,5.47
2022-12-19T23:15:44.208Z,5.23
2022-12-19T23:19:08.945Z,5.60
2022-12-19T23:22:30.961Z,5.77
2022-12-19T23:25:52.811Z,5.07
2022-12-19T23:29:16.231Z,5.77
2022-12-19T23:32:38.116Z,5.53
2022-12-19T23:36:00.655Z,5.60
2022-12-19T23:39:22.497Z,5.70
2022-12-19T23:42:44.696Z,5.33
2022-12-19T23:46:12.078Z,5.47
2022-12-19T23:49:34.170Z,5.23
2022-12-19T23:52:56.094Z,5.67
2022-12-19T23:56:24.964Z,5.17
2022-12-19T23:59:46.852Z,5.77
